createdAt,value
2019-05-01T00:00:37.324Z,20.40
2019-05-01T00:03:24.080Z,19.60
2019-05-01T00:05:58.028Z,20.63
2019-05-01T00:08:27.906Z,18.63
2019-05-01T00:10:58.130Z,18.10
2019-05-01T00:13:29.512Z,18.00
2019-05-01T00:15:59.272Z,17.60
2019-05-01T00:18:29.116Z,17.10
2019-05-01T00:20:59.589Z,18.53
2019-05-01T00:23:30.510Z,18.00
2019-05-01T00:26:00.487Z,18.90
2019-05-01T00:28:30.730Z,18.67
2019-05-01T00:31:00.524Z,17.43
2019-05-01T00:33:30.376Z,17.37
2019-05-01T00:36:00.815Z,18.23
2019-05-01T00:38:30.711Z,16.80
2019-05-01T00:41:00.799Z,17.93
2019-05-01T00:43:30.630Z,17.53
2019-05-01T00:46:00.503Z,16.43
2019-05-01T00:48:30.479Z,16.77
2019-05-01T00:51:01.700Z,18.60
2019-05-01T00:53:31.419Z,18.20
2019-05-01T00:56:09.014Z,18.90
2019-05-01T00:59:06.895Z,19.37
2019-05-01T01:01:54.324Z,19.20
2019-05-01T01:04:24.456Z,19.33
2019-05-01T01:06:54.285Z,19.07
2019-05-01T01:09:24.370Z,18.87
2019-05-01T01:11:54.293Z,19.17
2019-05-01T01:14:24.202Z,18.33
2019-05-01T01:16:54.074Z,20.47
2019-05-01T01:19:24.177Z,19.93
2019-05-01T01:21:54.005Z,19.43
2019-05-01T01:24:24.301Z,18.50
2019-05-01T01:26:54.602Z,18.50
2019-05-01T01:29:25.807Z,19.93
2019-05-01T01:31:55.363Z,19.20
2019-05-01T01:34:25.782Z,18.57
2019-05-01T01:36:55.481Z,18.70
2019-05-01T01:39:25.822Z,16.70
2019-05-01T01:41:56.422Z,19.10
2019-05-01T01:44:57.871Z,17.63
2019-05-01T01:47:27.532Z,18.53
2019-05-01T01:49:57.972Z,18.07
2019-05-01T01:52:28.644Z,18.60
2019-05-01T01:54:58.316Z,19.80
2019-05-01T01:57:28.269Z,18.90
2019-05-01T01:59:58.543Z,19.33
2019-05-01T02:02:36.054Z,17.87
2019-05-01T02:05:26.449Z,18.07
2019-05-01T02:07:57.423Z,18.90
2019-05-01T02:10:42.171Z,19.23
2019-05-01T02:12:59.522Z,18.30
2019-05-01T02:15:29.998Z,19.57
2019-05-01T02:18:00.223Z,18.87
2019-05-01T02:20:30.446Z,17.60
2019-05-01T02:22:59.990Z,18.53
2019-05-01T02:25:30.995Z,18.43
2019-05-01T02:28:31.817Z,17.13
2019-05-01T02:31:29.533Z,17.60
2019-05-01T02:34:01.752Z,18.77
2019-05-01T02:36:31.961Z,17.43
2019-05-01T02:39:05.815Z,17.70
2019-05-01T02:41:41.539Z,17.00
2019-05-01T02:44:16.229Z,17.60
2019-05-01T02:46:49.469Z,17.40
2019-05-01T02:49:36.482Z,18.53
2019-05-01T02:52:09.368Z,17.23
2019-05-01T02:54:41.475Z,18.20
2019-05-01T02:57:15.560Z,17.17
2019-05-01T02:59:48.964Z,17.70
2019-05-01T03:02:19.294Z,17.73
2019-05-01T03:04:49.499Z,18.80
2019-05-01T03:07:20.215Z,18.33
2019-05-01T03:09:51.387Z,18.30
2019-05-01T03:12:24.903Z,17.30
2019-05-01T03:14:57.840Z,15.87
2019-05-01T03:17:46.075Z,16.80
2019-05-01T03:20:44.204Z,16.63
2019-05-01T03:23:39.541Z,16.20
2019-05-01T03:26:10.375Z,14.77
2019-05-01T03:28:40.326Z,16.30
2019-05-01T03:31:13.355Z,16.63
2019-05-01T03:33:42.951Z,15.57
2019-05-01T03:36:13.777Z,16.30
2019-05-01T03:38:44.215Z,16.57
2019-05-01T03:41:14.134Z,15.27
2019-05-01T03:43:44.353Z,16.33
2019-05-01T03:46:14.586Z,15.20
2019-05-01T03:48:44.802Z,15.33
2019-05-01T03:51:15.099Z,14.83
2019-05-01T03:53:46.116Z,15.93
2019-05-01T03:56:16.209Z,15.80
2019-05-01T03:58:46.795Z,15.40
2019-05-01T04:01:52.610Z,16.37
2019-05-01T04:04:24.616Z,15.53
2019-05-01T04:06:54.766Z,16.43
2019-05-01T04:09:24.809Z,16.57
2019-05-01T04:11:54.674Z,18.30
2019-05-01T04:14:25.183Z,18.00
2019-05-01T04:17:03.145Z,16.30
2019-05-01T04:19:33.354Z,17.10
2019-05-01T04:22:09.597Z,16.20
2019-05-01T04:24:40.667Z,16.47
2019-05-01T04:27:13.200Z,15.73
2019-05-01T04:30:01.312Z,15.73
2019-05-01T04:32:51.244Z,14.23
2019-05-01T04:35:25.365Z,15.60
2019-05-01T04:37:59.008Z,14.83
2019-05-01T04:40:28.710Z,14.43
2019-05-01T04:42:58.885Z,14.33
2019-05-01T04:45:29.397Z,14.43
2019-05-01T04:47:59.228Z,13.63
2019-05-01T04:50:29.209Z,13.30
2019-05-01T04:52:59.637Z,13.17
2019-05-01T04:55:30.161Z,13.17
2019-05-01T04:58:00.476Z,13.37
2019-05-01T05:00:31.105Z,13.40
2019-05-01T05:03:05.539Z,12.57
2019-05-01T05:05:35.257Z,13.40
2019-05-01T05:08:05.566Z,12.97
2019-05-01T05:10:35.578Z,12.47
2019-05-01T05:13:21.263Z,13.10
2019-05-01T05:15:58.611Z,13.03
2019-05-01T05:18:28.368Z,14.07
2019-05-01T05:20:58.529Z,12.63
2019-05-01T05:23:29.078Z,13.20
2019-05-01T05:25:59.468Z,14.30
2019-05-01T05:28:32.641Z,13.47
2019-05-01T05:31:04.447Z,14.23
2019-05-01T05:33:36.602Z,13.60
2019-05-01T05:36:08.922Z,13.20
2019-05-01T05:38:58.077Z,13.17
2019-05-01T05:41:29.296Z,13.30
2019-05-01T05:43:59.753Z,12.10
2019-05-01T05:46:30.750Z,12.67
2019-05-01T05:49:00.870Z,12.27
2019-05-01T05:51:54.894Z,11.40
2019-05-01T05:54:59.558Z,12.47
2019-05-01T05:57:44.218Z,14.20
2019-05-01T06:00:25.071Z,12.67
2019-05-01T06:03:04.872Z,13.23
2019-05-01T06:05:53.008Z,12.60
2019-05-01T06:08:26.524Z,22.30
2019-05-01T06:11:20.572Z,16.50
2019-05-01T06:14:10.901Z,21.90
2019-05-01T06:17:03.336Z,22.03
2019-05-01T06:19:45.980Z,17.93
2019-05-01T06:22:24.499Z,24.30
2019-05-01T06:25:04.422Z,24.10
2019-05-01T06:27:35.096Z,20.20
2019-05-01T06:30:11.126Z,19.73
2019-05-01T06:32:40.814Z,14.27
2019-05-01T06:35:10.553Z,11.73
2019-05-01T06:37:56.028Z,10.90
2019-05-01T06:40:38.356Z,9.60
2019-05-01T06:43:12.672Z,8.70
2019-05-01T06:45:51.293Z,9.93
2019-05-01T06:48:19.602Z,10.27
2019-05-01T06:50:57.222Z,10.50
2019-05-01T06:53:27.973Z,9.70
2019-05-01T06:55:58.160Z,9.90
2019-05-01T06:58:28.483Z,9.87
2019-05-01T07:00:58.549Z,9.77
2019-05-01T07:03:29.031Z,9.60
2019-05-01T07:05:58.659Z,9.57
2019-05-01T07:08:29.573Z,10.63
2019-05-01T07:11:00.115Z,9.87
2019-05-01T07:13:35.448Z,9.17
2019-05-01T07:16:05.923Z,10.03
2019-05-01T07:18:36.737Z,9.33
2019-05-01T07:21:07.482Z,10.00
2019-05-01T07:23:37.909Z,9.17
2019-05-01T07:26:09.970Z,10.03
2019-05-01T07:28:41.583Z,9.70
2019-05-01T07:31:15.970Z,10.40
2019-05-01T07:33:51.229Z,10.33
2019-05-01T07:36:20.141Z,9.03
2019-05-01T07:38:51.248Z,9.30
2019-05-01T07:41:21.188Z,9.77
2019-05-01T07:44:13.251Z,9.20
2019-05-01T07:47:11.281Z,9.77
2019-05-01T07:49:55.222Z,9.37
2019-05-01T07:52:25.281Z,10.70
2019-05-01T07:54:56.864Z,9.57
2019-05-01T07:57:34.193Z,8.67
2019-05-01T08:00:08.554Z,9.70
2019-05-01T08:02:39.877Z,9.13
2019-05-01T08:05:11.585Z,9.10
2019-05-01T08:07:41.011Z,9.60
2019-05-01T08:10:14.152Z,9.47
2019-05-01T08:12:45.207Z,8.67
2019-05-01T08:15:15.337Z,9.43
2019-05-01T08:17:48.731Z,8.50
2019-05-01T08:20:30.466Z,8.03
2019-05-01T08:23:00.734Z,8.43
2019-05-01T08:25:33.269Z,8.10
2019-05-01T08:28:14.383Z,8.70
2019-05-01T08:31:05.801Z,8.60
2019-05-01T08:34:03.718Z,8.53
2019-05-01T08:36:35.740Z,7.77
2019-05-01T08:39:09.247Z,8.23
2019-05-01T08:41:40.828Z,9.13
2019-05-01T08:44:10.558Z,8.47
2019-05-01T08:46:59.735Z,7.77
2019-05-01T08:49:51.128Z,7.53
2019-05-01T08:52:21.411Z,8.00
2019-05-01T08:54:51.406Z,7.47
2019-05-01T08:57:21.586Z,7.10
2019-05-01T08:59:51.414Z,7.93
2019-05-01T09:02:20.991Z,9.23
2019-05-01T09:05:02.416Z,8.50
2019-05-01T09:07:30.189Z,8.00
2019-05-01T09:10:00.011Z,7.83
2019-05-01T09:12:29.864Z,7.87
2019-05-01T09:15:00.206Z,8.20
2019-05-01T09:17:31.026Z,7.17
2019-05-01T09:20:01.383Z,7.80
2019-05-01T09:22:31.615Z,8.20
2019-05-01T09:25:01.921Z,7.97
2019-05-01T09:27:59.523Z,6.87
2019-05-01T09:30:35.982Z,7.50
2019-05-01T09:33:08.120Z,7.50
2019-05-01T09:35:40.144Z,7.20
2019-05-01T09:38:10.212Z,7.93
2019-05-01T09:40:40.954Z,7.67
2019-05-01T09:43:11.291Z,7.70
2019-05-01T09:45:40.787Z,7.60
2019-05-01T09:48:10.853Z,8.40
2019-05-01T09:50:45.201Z,8.00
2019-05-01T09:53:42.871Z,6.90
2019-05-01T09:56:24.600Z,8.30
2019-05-01T09:58:54.908Z,7.30
2019-05-01T10:01:31.647Z,7.00
2019-05-01T10:03:59.203Z,7.50
2019-05-01T10:06:29.729Z,7.83
2019-05-01T10:09:00.324Z,9.10
2019-05-01T10:11:29.853Z,7.57
2019-05-01T10:14:00.428Z,6.83
2019-05-01T10:16:29.960Z,6.90
2019-05-01T10:18:59.601Z,7.40
2019-05-01T10:21:30.026Z,7.00
2019-05-01T10:24:00.760Z,7.53
2019-05-01T10:26:32.040Z,6.70
2019-05-01T10:29:29.867Z,6.73
2019-05-01T10:32:06.072Z,6.80
2019-05-01T10:34:48.126Z,7.57
2019-05-01T10:37:19.153Z,6.60
2019-05-01T10:39:50.103Z,7.17
2019-05-01T10:42:24.830Z,6.90
2019-05-01T10:44:55.052Z,6.87
2019-05-01T10:47:25.378Z,6.83
2019-05-01T10:49:56.714Z,6.67
2019-05-01T10:52:26.986Z,6.73
2019-05-01T10:54:56.855Z,6.17
2019-05-01T10:57:26.867Z,6.63
2019-05-01T10:59:56.676Z,6.50
2019-05-01T11:02:29.832Z,6.70
2019-05-01T11:05:00.274Z,6.90
2019-05-01T11:07:30.166Z,6.00
2019-05-01T11:10:01.005Z,6.60
2019-05-01T11:12:31.338Z,7.00
2019-05-01T11:15:01.181Z,6.60
2019-05-01T11:17:30.771Z,6.30
2019-05-01T11:20:00.727Z,5.57
2019-05-01T11:22:31.520Z,6.10
2019-05-01T11:25:01.705Z,5.60
2019-05-01T11:27:32.584Z,6.13
2019-05-01T11:30:03.320Z,5.77
2019-05-01T11:32:59.887Z,5.70
2019-05-01T11:35:49.503Z,6.20
2019-05-01T11:38:38.284Z,6.40
2019-05-01T11:41:19.579Z,6.30
2019-05-01T11:43:50.359Z,6.20
2019-05-01T11:46:20.845Z,5.90
2019-05-01T11:48:51.325Z,5.87
2019-05-01T11:51:20.858Z,6.07
2019-05-01T11:53:51.003Z,5.80
2019-05-01T11:56:21.291Z,5.50
2019-05-01T11:58:51.528Z,6.37
2019-05-01T12:01:23.860Z,5.20
2019-05-01T12:03:53.569Z,6.20
2019-05-01T12:06:23.737Z,5.73
2019-05-01T12:08:54.002Z,6.10
2019-05-01T12:11:25.961Z,6.20
2019-05-01T12:13:56.577Z,6.00
2019-05-01T12:16:44.004Z,6.13
2019-05-01T12:19:14.096Z,6.17
2019-05-01T12:21:44.496Z,5.90
2019-05-01T12:24:14.361Z,6.10
2019-05-01T12:26:44.075Z,5.90
2019-05-01T12:29:14.430Z,6.40
2019-05-01T12:31:44.517Z,5.27
2019-05-01T12:34:14.566Z,5.20
2019-05-01T12:36:45.298Z,5.63
2019-05-01T12:39:17.432Z,5.30
2019-05-01T12:41:56.097Z,5.63
2019-05-01T12:44:26.251Z,6.20
2019-05-01T12:47:13.744Z,5.70
2019-05-01T12:49:45.366Z,6.70
2019-05-01T12:52:22.607Z,5.50
2019-05-01T12:55:01.534Z,5.60
2019-05-01T12:57:31.486Z,5.30
2019-05-01T13:00:08.742Z,5.60
2019-05-01T13:02:35.590Z,5.10
2019-05-01T13:05:05.984Z,5.43
2019-05-01T13:07:36.032Z,5.57
2019-05-01T13:10:07.247Z,5.77
2019-05-01T13:12:37.791Z,5.03
2019-05-01T13:15:08.115Z,5.73
2019-05-01T13:17:38.335Z,5.60
2019-05-01T13:20:08.033Z,6.17
2019-05-01T13:22:37.608Z,5.80
2019-05-01T13:25:10.184Z,4.70
2019-05-01T13:27:47.664Z,5.30
2019-05-01T13:30:43.055Z,6.27
2019-05-01T13:33:12.951Z,5.00
2019-05-01T13:35:46.200Z,4.63
2019-05-01T13:38:15.671Z,4.73
2019-05-01T13:40:45.551Z,4.70
2019-05-01T13:43:15.900Z,4.70
2019-05-01T13:45:45.494Z,5.23
2019-05-01T13:48:15.824Z,5.30
2019-05-01T13:50:45.914Z,5.00
2019-05-01T13:53:16.222Z,4.50
2019-05-01T13:55:46.611Z,5.20
2019-05-01T13:58:16.119Z,5.00
2019-05-01T14:00:46.519Z,5.10
2019-05-01T14:03:16.544Z,5.40
2019-05-01T14:05:48.515Z,5.03
2019-05-01T14:08:17.956Z,4.80
2019-05-01T14:10:48.365Z,4.90
2019-05-01T14:13:18.575Z,4.40
2019-05-01T14:15:48.874Z,4.90
2019-05-01T14:18:18.465Z,4.30
2019-05-01T14:21:02.423Z,4.77
2019-05-01T14:24:00.806Z,4.70
2019-05-01T14:26:32.931Z,4.97
2019-05-01T14:29:02.430Z,4.80
2019-05-01T14:31:32.578Z,4.40
2019-05-01T14:34:03.324Z,4.70
2019-05-01T14:36:33.406Z,4.47
2019-05-01T14:39:04.100Z,4.60
2019-05-01T14:41:34.533Z,4.70
2019-05-01T14:44:06.474Z,4.70
2019-05-01T14:46:36.308Z,4.80
2019-05-01T14:49:06.542Z,4.23
2019-05-01T14:51:36.443Z,3.73
2019-05-01T14:54:06.483Z,4.40
2019-05-01T14:56:36.051Z,3.90
2019-05-01T14:59:07.008Z,3.87
2019-05-01T15:01:37.015Z,3.90
2019-05-01T15:04:06.997Z,3.60
2019-05-01T15:06:37.040Z,4.23
2019-05-01T15:09:08.795Z,4.10
2019-05-01T15:11:40.616Z,3.67
2019-05-01T15:14:20.731Z,3.83
2019-05-01T15:17:09.114Z,4.50
2019-05-01T15:19:44.346Z,4.30
2019-05-01T15:22:14.580Z,3.47
2019-05-01T15:24:44.800Z,4.03
2019-05-01T15:27:15.282Z,3.70
2019-05-01T15:29:45.438Z,3.60
2019-05-01T15:32:16.273Z,3.70
2019-05-01T15:34:46.397Z,3.80
2019-05-01T15:37:16.635Z,4.47
2019-05-01T15:40:11.331Z,4.47
2019-05-01T15:42:45.630Z,4.50
2019-05-01T15:45:16.158Z,4.10
2019-05-01T15:47:48.455Z,4.80
2019-05-01T15:50:19.092Z,4.37
2019-05-01T15:52:49.693Z,4.20
2019-05-01T15:55:19.996Z,4.40
2019-05-01T15:57:49.937Z,4.87
2019-05-01T16:00:21.395Z,4.53
2019-05-01T16:02:52.109Z,4.60
2019-05-01T16:05:22.658Z,5.03
2019-05-01T16:07:53.099Z,5.33
2019-05-01T16:10:26.772Z,5.30
2019-05-01T16:13:01.190Z,5.60
2019-05-01T16:15:33.035Z,5.13
2019-05-01T16:18:03.516Z,4.73
2019-05-01T16:20:33.821Z,5.50
2019-05-01T16:23:03.744Z,5.10
2019-05-01T16:25:33.224Z,5.33
2019-05-01T16:28:03.587Z,5.17
2019-05-01T16:30:34.268Z,5.43
2019-05-01T16:33:05.405Z,5.40
2019-05-01T16:35:35.698Z,6.17
2019-05-01T16:38:22.205Z,5.80
2019-05-01T16:41:06.229Z,5.40
2019-05-01T16:43:36.526Z,6.47
2019-05-01T16:46:08.361Z,5.70
2019-05-01T16:48:38.281Z,6.40
2019-05-01T16:51:09.270Z,5.40
2019-05-01T16:53:39.669Z,6.50
2019-05-01T16:56:09.800Z,6.20
2019-05-01T16:58:40.556Z,6.30
2019-05-01T17:01:27.537Z,5.80
2019-05-01T17:04:17.166Z,6.40
2019-05-01T17:07:02.992Z,6.57
2019-05-01T17:09:50.224Z,6.17
2019-05-01T17:12:21.100Z,5.80
2019-05-01T17:14:51.026Z,6.97
2019-05-01T17:17:22.718Z,6.77
2019-05-01T17:19:53.463Z,6.37
2019-05-01T17:22:23.646Z,6.47
2019-05-01T17:24:54.045Z,7.07
2019-05-01T17:27:24.482Z,6.57
2019-05-01T17:29:55.287Z,6.93
2019-05-01T17:32:25.238Z,6.33
2019-05-01T17:34:55.783Z,7.13
2019-05-01T17:37:26.041Z,7.17
2019-05-01T17:39:56.042Z,6.50
2019-05-01T17:42:26.682Z,7.73
2019-05-01T17:44:59.618Z,6.80
2019-05-01T17:47:28.763Z,6.33
2019-05-01T17:49:58.391Z,7.00
2019-05-01T17:52:28.474Z,6.90
2019-05-01T17:55:01.241Z,6.60
2019-05-01T17:57:30.410Z,7.40
2019-05-01T18:00:02.579Z,7.00
2019-05-01T18:02:46.424Z,6.53
2019-05-01T18:05:21.353Z,6.57
2019-05-01T18:07:52.599Z,7.10
2019-05-01T18:10:23.358Z,5.77
2019-05-01T18:12:53.164Z,7.00
2019-05-01T18:15:23.371Z,7.70
2019-05-01T18:17:53.542Z,6.90
2019-05-01T18:20:24.227Z,7.03
2019-05-01T18:23:08.366Z,6.23
2019-05-01T18:26:08.690Z,6.40
2019-05-01T18:28:43.084Z,7.60
2019-05-01T18:31:18.808Z,7.20
2019-05-01T18:33:49.100Z,7.30
2019-05-01T18:36:24.563Z,7.43
2019-05-01T18:39:02.204Z,6.70
2019-05-01T18:41:37.178Z,6.40
2019-05-01T18:44:10.186Z,6.67
2019-05-01T18:46:42.771Z,6.40
2019-05-01T18:49:13.223Z,7.07
2019-05-01T18:51:43.078Z,7.07
2019-05-01T18:54:14.862Z,6.60
2019-05-01T18:56:45.170Z,6.87
2019-05-01T18:59:15.729Z,7.27
2019-05-01T19:01:48.493Z,6.60
2019-05-01T19:04:23.628Z,7.07
2019-05-01T19:06:53.027Z,7.47
2019-05-01T19:09:30.224Z,6.83
2019-05-01T19:11:55.797Z,6.90
2019-05-01T19:14:28.816Z,7.97
2019-05-01T19:16:59.348Z,7.53
2019-05-01T19:19:29.970Z,7.70
2019-05-01T19:22:02.385Z,7.73
2019-05-01T19:24:37.825Z,7.40
2019-05-01T19:27:06.478Z,8.60
2019-05-01T19:29:39.164Z,8.30
2019-05-01T19:32:09.548Z,8.30
2019-05-01T19:34:40.488Z,8.33
2019-05-01T19:37:10.692Z,8.60
2019-05-01T19:39:43.696Z,7.50
2019-05-01T19:42:14.890Z,7.00
2019-05-01T19:44:45.221Z,8.20
2019-05-01T19:47:15.943Z,8.60
2019-05-01T19:49:45.899Z,7.90
2019-05-01T19:52:15.746Z,8.33
2019-05-01T19:54:46.056Z,9.33
2019-05-01T19:57:16.195Z,8.57
2019-05-01T19:59:46.806Z,8.63
2019-05-01T20:02:21.680Z,9.00
2019-05-01T20:04:50.427Z,8.90
2019-05-01T20:07:21.729Z,8.63
2019-05-01T20:09:57.063Z,8.33
2019-05-01T20:12:25.216Z,8.90
2019-05-01T20:14:56.240Z,8.70
2019-05-01T20:17:26.566Z,8.40
2019-05-01T20:20:00.493Z,9.47
2019-05-01T20:22:29.807Z,8.37
2019-05-01T20:24:59.696Z,9.40
2019-05-01T20:27:30.705Z,8.13
2019-05-01T20:30:02.278Z,7.60
2019-05-01T20:32:31.818Z,8.83
2019-05-01T20:35:02.217Z,8.43
2019-05-01T20:37:34.328Z,8.30
2019-05-01T20:40:11.175Z,8.50
2019-05-01T20:42:37.271Z,9.10
2019-05-01T20:45:13.014Z,9.50
2019-05-01T20:47:45.266Z,9.03
2019-05-01T20:50:13.822Z,8.83
2019-05-01T20:52:44.204Z,7.07
2019-05-01T20:55:15.776Z,8.37
2019-05-01T20:57:47.591Z,8.47
2019-05-01T21:00:20.293Z,8.67
2019-05-01T21:02:50.809Z,7.53
2019-05-01T21:05:32.459Z,7.97
2019-05-01T21:08:07.537Z,6.77
2019-05-01T21:10:58.900Z,5.60
2019-05-01T21:13:29.137Z,7.10
2019-05-01T21:16:01.856Z,5.97
2019-05-01T21:18:32.214Z,6.80
2019-05-01T21:21:03.467Z,6.33
2019-05-01T21:23:33.512Z,6.10
2019-05-01T21:26:03.921Z,5.70
2019-05-01T21:28:35.114Z,6.33
2019-05-01T21:31:04.882Z,5.93
2019-05-01T21:33:35.185Z,7.10
2019-05-01T21:36:08.325Z,6.23
2019-05-01T21:38:39.243Z,6.00
2019-05-01T21:41:12.517Z,6.63
2019-05-01T21:43:42.607Z,6.50
2019-05-01T21:46:12.603Z,6.17
2019-05-01T21:48:43.597Z,6.67
2019-05-01T21:51:13.704Z,6.57
2019-05-01T21:53:46.311Z,6.50
2019-05-01T21:56:15.222Z,5.70
2019-05-01T21:58:48.429Z,7.00
2019-05-01T22:01:18.761Z,5.60
2019-05-01T22:03:52.570Z,6.20
2019-05-01T22:06:21.032Z,6.07
2019-05-01T22:08:51.301Z,6.20
2019-05-01T22:11:21.536Z,7.60
2019-05-01T22:13:55.058Z,6.43
2019-05-01T22:16:25.290Z,6.63
2019-05-01T22:19:03.170Z,7.70
2019-05-01T22:21:51.500Z,6.57
2019-05-01T22:24:42.715Z,6.90
2019-05-01T22:27:20.966Z,8.30
2019-05-01T22:29:57.468Z,7.17
2019-05-01T22:32:33.956Z,7.50
2019-05-01T22:35:26.477Z,9.30
2019-05-01T22:37:56.955Z,8.17
2019-05-01T22:40:47.491Z,8.60
2019-05-01T22:43:17.571Z,9.40
2019-05-01T22:45:48.409Z,8.80
2019-05-01T22:48:18.478Z,10.13
2019-05-01T22:50:50.097Z,9.90
2019-05-01T22:53:20.306Z,8.60
2019-05-01T22:55:50.430Z,8.90
2019-05-01T22:58:20.361Z,9.80
2019-05-01T23:00:55.504Z,9.83
2019-05-01T23:03:48.592Z,11.50
2019-05-01T23:06:19.359Z,11.70
2019-05-01T23:08:49.475Z,12.73
2019-05-01T23:11:20.570Z,12.17
2019-05-01T23:13:50.219Z,13.40
2019-05-01T23:16:22.338Z,12.70
2019-05-01T23:18:53.255Z,13.07
2019-05-01T23:21:23.129Z,13.50
2019-05-01T23:23:56.790Z,14.40
2019-05-01T23:26:25.140Z,14.00
2019-05-01T23:28:55.211Z,13.93
2019-05-01T23:31:25.528Z,14.53
2019-05-01T23:33:55.418Z,14.60
2019-05-01T23:36:25.793Z,15.67
2019-05-01T23:38:56.501Z,14.83
2019-05-01T23:41:44.682Z,14.73
2019-05-01T23:44:03.262Z,15.93
2019-05-01T23:46:30.234Z,14.80
2019-05-01T23:49:00.090Z,15.30
2019-05-01T23:51:30.322Z,16.67
2019-05-01T23:54:00.886Z,15.57
2019-05-01T23:56:35.129Z,16.27
2019-05-01T23:59:04.227Z,18.27
